Time;durP1;ratioP1;P1;durP2;ratioP2;P2;SDS_P1;SDS_P2;PMS_P1;PMS_P2;Temp;Humidity;BMP_temperature;BMP_pressure;BME280_temperature;BME280_humidity;BME280_pressure;Samples;Min_cycle;Max_cycle;Signal;HPM_P1;HPM_P2
2022/08/02 00:01:19;;;;;;;6.63;2.50;;;13.50;99.90;;;;;;5057565;28;20756;-75
2022/08/02 00:03:45;;;;;;;10.07;2.60;;;13.50;99.90;;;;;;5070277;28;20452;-74
2022/08/02 00:06:11;;;;;;;10.18;2.58;;;13.50;99.90;;;;;;5068316;28;20146;-77
2022/08/02 00:08:36;;;;;;;8.10;2.85;;;13.50;99.90;;;;;;5065862;28;20072;-74
2022/08/02 00:11:02;;;;;;;8.10;2.60;;;13.50;99.90;;;;;;5061356;28;20040;-74
2022/08/02 00:13:27;;;;;;;10.50;2.85;;;13.50;99.90;;;;;;5071440;28;20040;-74
2022/08/02 00:15:53;;;;;;;5.80;2.60;;;13.50;99.90;;;;;;5068835;28;20394;-74
2022/08/02 00:18:19;;;;;;;11.13;2.80;;;13.50;99.90;;;;;;5054300;28;20052;-77
2022/08/02 00:20:44;;;;;;;8.98;2.97;;;13.50;99.90;;;;;;5070312;28;20048;-74
2022/08/02 00:23:10;;;;;;;11.10;3.00;;;13.50;99.90;;;;;;5065247;28;20423;-76
2022/08/02 00:25:36;;;;;;;8.50;3.20;;;13.50;99.90;;;;;;5068318;28;20357;-74
2022/08/02 00:28:01;;;;;;;10.45;2.97;;;13.40;99.90;;;;;;5068670;28;20048;-77
2022/08/02 00:30:28;;;;;;;7.85;2.88;;;13.40;99.90;;;;;;5053569;28;20040;-74
2022/08/02 00:32:53;;;;;;;12.23;3.08;;;13.40;99.90;;;;;;5070949;28;20052;-74
2022/08/02 00:35:19;;;;;;;6.43;2.92;;;13.40;99.90;;;;;;5068427;28;20040;-73
2022/08/02 00:37:45;;;;;;;9.60;2.78;;;13.40;99.90;;;;;;5071370;28;20040;-75
2022/08/02 00:40:11;;;;;;;12.20;2.88;;;13.40;99.90;;;;;;5053633;28;20559;-75
2022/08/02 00:42:38;;;;;;;8.20;2.75;;;13.30;99.90;;;;;;5066829;28;20124;-75
2022/08/02 00:45:04;;;;;;;7.53;3.03;;;13.30;99.90;;;;;;5051616;28;20037;-77
2022/08/02 00:47:29;;;;;;;10.35;2.95;;;13.20;99.90;;;;;;5071574;28;20063;-76
2022/08/02 00:49:55;;;;;;;9.05;2.88;;;13.30;99.90;;;;;;5071768;28;20479;-75
2022/08/02 00:52:22;;;;;;;15.07;2.90;;;13.20;99.90;;;;;;5069498;28;20063;-72
2022/08/02 00:54:48;;;;;;;10.70;2.92;;;13.10;99.90;;;;;;5056862;28;20056;-73
2022/08/02 00:57:14;;;;;;;10.10;3.00;;;13.20;99.90;;;;;;5069151;28;20040;-76
2022/08/02 00:59:40;;;;;;;11.38;3.03;;;13.00;99.90;;;;;;5068728;28;20094;-77
2022/08/02 01:02:07;;;;;;;13.13;3.13;;;13.00;99.90;;;;;;5072280;28;20554;-76
2022/08/02 01:04:33;;;;;;;9.77;2.60;;;13.00;99.90;;;;;;5055921;28;20060;-75
2022/08/02 01:07:04;;;;;;;9.77;2.70;;;12.90;99.90;;;;;;5052568;28;20038;-77
2022/08/02 01:09:29;;;;;;;10.68;3.00;;;12.90;99.90;;;;;;5074312;28;20036;-75
2022/08/02 01:11:55;;;;;;;9.13;2.63;;;12.90;99.90;;;;;;5072491;28;20552;-74
2022/08/02 01:14:23;;;;;;;14.10;2.97;;;12.90;99.90;;;;;;5073395;28;20088;-74
2022/08/02 01:17:05;;;;;;;9.18;3.00;;;12.80;99.90;;;;;;5056092;28;20101;-74
2022/08/02 01:19:42;;;;;;;8.60;2.72;;;12.80;99.90;;;;;;5072144;28;20563;-75
2022/08/02 01:22:13;;;;;;;10.65;2.60;;;12.90;99.90;;;;;;5036968;28;20127;-75
2022/08/02 01:24:51;;;;;;;12.38;2.88;;;12.70;99.90;;;;;;5045710;28;20032;-74
2022/08/02 01:27:55;;;;;;;9.13;2.90;;;12.70;99.90;;;;;;5071030;28;20062;-75
2022/08/02 01:30:21;;;;;;;13.00;2.75;;;12.60;99.90;;;;;;5053884;28;20040;-74
2022/08/02 01:32:52;;;;;;;12.70;2.50;;;12.60;99.90;;;;;;5053719;28;20399;-75
2022/08/02 01:35:31;;;;;;;11.07;2.45;;;12.60;99.90;;;;;;5047005;28;20047;-74
2022/08/02 01:38:05;;;;;;;9.55;2.60;;;12.50;99.90;;;;;;5072797;28;20039;-74
2022/08/02 01:40:34;;;;;;;11.82;2.72;;;12.60;99.90;;;;;;5069374;28;20495;-76
2022/08/02 01:43:01;;;;;;;12.50;2.88;;;12.50;99.90;;;;;;5055252;28;20047;-75
2022/08/02 01:45:34;;;;;;;8.32;2.53;;;12.50;99.90;;;;;;5054156;28;20036;-76
2022/08/02 01:48:01;;;;;;;9.82;2.60;;;12.60;99.90;;;;;;5065807;28;20372;-74
2022/08/02 01:50:32;;;;;;;8.88;2.90;;;12.50;99.90;;;;;;5045084;28;20506;-74
2022/08/02 01:53:02;;;;;;;10.73;2.53;;;12.60;99.90;;;;;;5056510;28;20184;-75
2022/08/02 01:55:42;;;;;;;11.10;2.72;;;12.60;99.90;;;;;;5071446;28;20447;-75
2022/08/02 01:58:13;;;;;;;12.35;2.55;;;12.50;99.90;;;;;;5070408;28;20040;-75
2022/08/02 02:00:40;;;;;;;15.27;2.97;;;12.50;99.90;;;;;;5071979;28;20147;-75
2022/08/02 02:03:12;;;;;;;12.43;3.03;;;12.60;99.90;;;;;;5052660;28;20051;-74
2022/08/02 02:05:39;;;;;;;10.85;2.83;;;12.60;99.90;;;;;;5066789;28;20055;-75
2022/08/02 02:08:07;;;;;;;11.82;2.80;;;12.60;99.90;;;;;;5070206;28;20044;-76
2022/08/02 02:10:37;;;;;;;15.25;2.72;;;12.70;99.90;;;;;;5068514;28;20048;-76
2022/08/02 02:13:06;;;;;;;9.90;3.00;;;12.80;99.90;;;;;;5053229;28;20506;-75
2022/08/02 02:15:33;;;;;;;14.48;3.22;;;12.70;99.90;;;;;;5038486;28;20169;-77
2022/08/02 02:18:02;;;;;;;11.23;2.80;;;12.80;99.90;;;;;;5061626;28;20037;-73
2022/08/02 02:20:28;;;;;;;11.10;3.03;;;12.80;99.90;;;;;;5065845;28;20465;-75
2022/08/02 02:22:54;;;;;;;15.73;3.40;;;12.80;99.90;;;;;;5050455;28;20099;-76
2022/08/02 02:25:21;;;;;;;9.30;3.17;;;12.80;99.90;;;;;;5066216;28;20066;-75
2022/08/02 02:28:02;;;;;;;17.50;3.38;;;12.80;99.90;;;;;;5063444;28;20144;-74
2022/08/02 02:30:29;;;;;;;12.20;3.28;;;12.90;99.90;;;;;;5049881;28;20043;-74
2022/08/02 02:32:57;;;;;;;12.15;3.75;;;12.80;99.90;;;;;;5067239;28;20044;-75
2022/08/02 02:35:26;;;;;;;16.40;3.25;;;12.90;99.90;;;;;;5050861;28;20048;-74
2022/08/02 02:37:53;;;;;;;13.10;2.95;;;12.90;99.90;;;;;;5051924;28;20494;-76
2022/08/02 02:40:21;;;;;;;14.23;3.50;;;12.90;99.90;;;;;;5068546;28;20044;-76
2022/08/02 02:42:48;;;;;;;15.32;3.20;;;13.00;99.90;;;;;;5068773;28;20037;-75
2022/08/02 02:45:17;;;;;;;12.43;3.13;;;12.90;99.90;;;;;;5052845;28;20052;-74
2022/08/02 02:47:44;;;;;;;15.15;3.03;;;13.00;99.90;;;;;;5049638;28;20037;-76
2022/08/02 02:50:11;;;;;;;12.68;3.28;;;13.00;99.90;;;;;;5051792;28;20341;-75
2022/08/02 02:52:39;;;;;;;14.30;3.13;;;13.00;99.90;;;;;;5069382;28;20136;-76
2022/08/02 02:55:06;;;;;;;15.55;3.00;;;13.00;99.90;;;;;;5049802;28;20044;-75
2022/08/02 02:57:32;;;;;;;10.57;3.00;;;13.00;99.90;;;;;;5071005;28;20048;-76
2022/08/02 02:59:58;;;;;;;15.30;3.60;;;13.00;99.90;;;;;;5056697;28;20438;-76
2022/08/02 03:02:24;;;;;;;10.80;3.00;;;13.00;99.90;;;;;;5053045;28;20045;-76
2022/08/02 03:04:52;;;;;;;16.27;3.30;;;13.00;99.90;;;;;;5049648;28;20069;-75
2022/08/02 03:07:18;;;;;;;15.07;3.25;;;13.00;99.90;;;;;;5049995;28;20044;-75
2022/08/02 03:09:43;;;;;;;12.63;2.88;;;13.00;99.90;;;;;;5050144;28;20037;-74
2022/08/02 03:12:10;;;;;;;12.65;3.30;;;12.90;99.90;;;;;;5032549;28;20053;-74
2022/08/02 03:14:43;;;;;;;12.15;3.20;;;13.00;99.90;;;;;;5051792;28;20456;-75
2022/08/02 03:17:08;;;;;;;8.90;2.53;;;13.00;99.90;;;;;;5035978;28;20136;-74
2022/08/02 03:19:34;;;;;;;11.00;2.80;;;12.90;99.90;;;;;;5053041;28;20127;-73
2022/08/02 03:22:00;;;;;;;11.00;2.72;;;12.90;99.90;;;;;;5023789;28;20034;-74
2022/08/02 03:24:25;;;;;;;13.27;3.00;;;12.90;99.90;;;;;;5042574;28;20476;-75
2022/08/02 03:26:51;;;;;;;11.52;2.80;;;12.90;99.90;;;;;;5033053;28;20045;-74
2022/08/02 03:29:16;;;;;;;11.68;3.00;;;12.90;99.90;;;;;;5051770;28;20036;-74
2022/08/02 03:31:44;;;;;;;13.75;3.00;;;13.10;99.90;;;;;;5051798;28;20084;-77
2022/08/02 03:34:10;;;;;;;12.70;2.97;;;12.90;99.90;;;;;;5052214;28;20051;-74
2022/08/02 03:36:37;;;;;;;9.38;2.97;;;12.90;99.90;;;;;;5035023;28;20052;-75
2022/08/02 03:39:05;;;;;;;14.82;3.30;;;13.00;99.90;;;;;;5044614;28;20518;-75
2022/08/02 03:41:31;;;;;;;12.55;3.17;;;12.90;99.90;;;;;;5052937;28;20069;-73
2022/08/02 03:44:16;;;;;;;14.95;3.30;;;12.90;99.90;;;;;;5038375;28;20037;-72
2022/08/02 03:46:42;;;;;;;13.20;3.47;;;13.00;99.90;;;;;;5070074;28;20431;-74
2022/08/02 03:49:11;;;;;;;11.23;3.20;;;13.00;99.90;;;;;;5054279;28;20294;-74
2022/08/02 03:51:37;;;;;;;12.50;3.33;;;13.00;99.90;;;;;;5053436;28;20136;-74
2022/08/02 03:54:03;;;;;;;14.18;3.50;;;12.90;99.90;;;;;;5045762;28;20146;-76
2022/08/02 03:56:30;;;;;;;13.68;3.72;;;12.90;99.90;;;;;;5049690;28;20075;-76
2022/08/02 03:59:13;;;;;;;13.18;3.28;;;13.00;99.90;;;;;;5051221;28;20068;-73
2022/08/02 04:01:40;;;;;;;16.05;3.78;;;12.90;99.90;;;;;;5034689;28;20041;-77
2022/08/02 04:04:06;;;;;;;15.48;3.28;;;12.90;99.90;;;;;;5068436;28;20123;-75
2022/08/02 04:06:32;;;;;;;12.60;3.55;;;12.80;99.90;;;;;;5033707;28;20124;-76
2022/08/02 04:08:58;;;;;;;15.68;3.65;;;13.00;99.90;;;;;;5050840;28;20468;-76
2022/08/02 04:11:29;;;;;;;11.82;3.30;;;12.90;99.90;;;;;;5038640;28;20041;-74
2022/08/02 04:13:57;;;;;;;14.38;3.72;;;13.00;99.90;;;;;;5051278;28;20041;-75
2022/08/02 04:16:31;;;;;;;15.88;3.42;;;13.00;99.90;;;;;;5052162;28;20063;-74
2022/08/02 04:19:06;;;;;;;11.95;3.40;;;13.00;99.90;;;;;;5051902;28;20036;-73
2022/08/02 04:21:35;;;;;;;17.05;3.80;;;13.00;99.90;;;;;;5049516;28;20052;-75
2022/08/02 04:24:04;;;;;;;21.33;3.95;;;13.10;99.90;;;;;;5035235;28;20365;-74
2022/08/02 04:26:35;;;;;;;18.15;4.13;;;13.10;99.90;;;;;;5035025;28;20071;-76
2022/08/02 04:29:01;;;;;;;42.00;6.07;;;13.10;99.90;;;;;;5045725;28;20381;-75
2022/08/02 04:31:28;;;;;;;15.80;4.20;;;13.10;99.90;;;;;;5064989;28;20038;-74
2022/08/02 04:33:54;;;;;;;14.05;4.38;;;13.10;99.90;;;;;;5031875;28;20075;-76
2022/08/02 04:36:20;;;;;;;16.80;4.00;;;13.10;99.90;;;;;;5040258;28;20044;-74
2022/08/02 04:38:48;;;;;;;13.60;4.22;;;13.10;99.90;;;;;;5051320;28;20491;-74
2022/08/02 04:41:14;;;;;;;14.88;4.38;;;13.20;99.90;;;;;;5050542;28;20037;-74
2022/08/02 04:43:40;;;;;;;21.40;4.53;;;13.20;99.90;;;;;;5051069;28;20055;-74
2022/08/02 04:46:05;;;;;;;14.48;4.25;;;13.30;99.90;;;;;;5047002;28;20041;-73
2022/08/02 04:48:34;;;;;;;13.15;4.40;;;13.30;99.90;;;;;;5050804;28;20079;-75
2022/08/02 04:50:59;;;;;;;14.65;4.40;;;13.30;99.90;;;;;;5050356;28;20159;-74
2022/08/02 04:53:25;;;;;;;13.60;4.05;;;13.30;99.90;;;;;;5034425;28;20156;-75
2022/08/02 04:55:51;;;;;;;15.50;4.50;;;13.30;99.90;;;;;;5045538;28;20045;-74
2022/08/02 04:58:16;;;;;;;17.60;4.38;;;13.40;99.90;;;;;;5050049;28;20068;-74
2022/08/02 05:00:42;;;;;;;15.02;4.45;;;13.50;99.90;;;;;;5051518;28;20041;-74
2022/08/02 05:03:08;;;;;;;16.80;4.60;;;13.50;99.90;;;;;;5044741;28;20048;-73
2022/08/02 05:05:34;;;;;;;12.68;3.95;;;13.50;99.90;;;;;;5069985;28;20132;-73
2022/08/02 05:08:03;;;;;;;19.65;4.47;;;13.60;99.90;;;;;;5068770;28;20032;-73
2022/08/02 05:10:29;;;;;;;19.63;5.15;;;13.70;99.90;;;;;;5065035;28;20411;-75
2022/08/02 05:12:54;;;;;;;11.07;4.35;;;13.70;99.90;;;;;;5053717;28;20142;-75
2022/08/02 05:15:20;;;;;;;14.32;4.38;;;13.80;99.90;;;;;;5069375;28;20033;-76
2022/08/02 05:17:47;;;;;;;12.07;4.30;;;13.90;99.90;;;;;;5070607;28;20155;-75
2022/08/02 05:20:12;;;;;;;12.18;4.60;;;14.00;99.90;;;;;;5051807;28;20055;-75
2022/08/02 05:22:39;;;;;;;11.02;4.47;;;14.00;99.90;;;;;;5063497;28;20048;-75
2022/08/02 05:25:05;;;;;;;15.73;4.28;;;14.20;99.90;;;;;;5068914;28;20455;-75
2022/08/02 05:27:32;;;;;;;16.52;4.68;;;14.30;99.90;;;;;;5069504;28;20428;-75
2022/08/02 05:29:58;;;;;;;12.73;4.22;;;14.40;99.90;;;;;;5069230;28;20538;-74
2022/08/02 05:32:24;;;;;;;17.88;3.97;;;14.50;99.90;;;;;;5068820;28;20037;-76
2022/08/02 05:34:50;;;;;;;13.15;4.15;;;14.50;99.90;;;;;;5052003;28;20433;-75
2022/08/02 05:37:16;;;;;;;22.50;4.78;;;14.60;99.90;;;;;;5051238;28;20055;-73
2022/08/02 05:39:42;;;;;;;12.95;4.10;;;14.70;99.90;;;;;;5064150;28;20376;-74
2022/08/02 05:42:07;;;;;;;14.98;4.15;;;14.80;99.90;;;;;;5067786;28;20059;-74
2022/08/02 05:44:33;;;;;;;15.07;4.72;;;14.90;99.90;;;;;;5067341;28;20587;-75
2022/08/02 05:46:59;;;;;;;13.68;4.43;;;15.00;99.90;;;;;;5069298;28;20041;-74
2022/08/02 05:49:24;;;;;;;12.70;3.97;;;15.00;99.90;;;;;;5068049;28;20037;-76
2022/08/02 05:52:06;;;;;;;11.88;3.75;;;15.00;99.90;;;;;;5067043;28;20037;-73
2022/08/02 05:54:49;;;;;;;14.68;3.90;;;15.00;99.90;;;;;;5069915;28;20079;-74
2022/08/02 05:57:33;;;;;;;16.40;4.63;;;15.10;99.90;;;;;;5067508;28;20037;-76
2022/08/02 06:00:19;;;;;;;11.57;3.75;;;15.20;99.90;;;;;;5068465;28;20044;-73
2022/08/02 06:02:54;;;;;;;13.65;3.78;;;15.20;99.90;;;;;;5066622;28;20269;-74
2022/08/02 06:05:21;;;;;;;12.52;3.53;;;15.30;99.90;;;;;;5068752;28;20123;-75
2022/08/02 06:07:48;;;;;;;14.98;4.50;;;15.40;99.90;;;;;;5065597;28;20045;-74
2022/08/02 06:10:18;;;;;;;12.57;3.53;;;15.50;99.90;;;;;;5063973;28;20043;-74
2022/08/02 06:13:09;;;;;;;19.45;4.38;;;15.50;99.90;;;;;;5055814;28;20559;-76
2022/08/02 06:15:39;;;;;;;12.40;3.63;;;15.60;99.90;;;;;;5017412;28;20479;-74
2022/08/02 06:18:06;;;;;;;13.88;3.65;;;15.70;99.90;;;;;;5015614;28;20096;-76
2022/08/02 06:20:35;;;;;;;13.32;3.80;;;15.80;99.90;;;;;;5010762;28;20088;-74
2022/08/02 06:23:03;;;;;;;10.40;3.25;;;15.90;99.90;;;;;;4996066;28;20137;-74
2022/08/02 06:25:30;;;;;;;9.40;3.40;;;16.00;99.90;;;;;;5012774;28;20053;-76
2022/08/02 06:28:17;;;;;;;11.07;3.38;;;16.20;99.90;;;;;;5025375;28;20118;-74
2022/08/02 06:30:43;;;;;;;13.38;3.13;;;16.30;99.90;;;;;;5017342;28;20112;-73
2022/08/02 06:33:09;;;;;;;12.05;3.00;;;16.50;99.90;;;;;;5031274;28;20049;-75
2022/08/02 06:35:45;;;;;;;9.65;2.80;;;16.60;99.90;;;;;;5014720;28;20103;-75
2022/08/02 06:38:17;;;;;;;9.43;2.90;;;16.70;99.90;;;;;;5028982;28;20100;-76
2022/08/02 06:40:47;;;;;;;10.30;3.00;;;16.80;99.90;;;;;;4995652;28;20049;-75
2022/08/02 06:43:22;;;;;;;13.85;3.38;;;16.90;99.90;;;;;;5010011;28;20091;-76
2022/08/02 06:45:48;;;;;;;9.77;2.97;;;16.90;99.90;;;;;;5000740;28;20048;-74
2022/08/02 06:48:14;;;;;;;9.35;3.00;;;17.00;99.90;;;;;;5015461;28;20504;-75
2022/08/02 06:50:42;;;;;;;12.30;2.70;;;17.10;99.90;;;;;;5015950;28;20476;-76
2022/08/02 06:53:10;;;;;;;11.38;2.38;;;17.20;99.90;;;;;;5055237;28;20121;-75
2022/08/02 06:55:36;;;;;;;12.98;2.78;;;17.30;99.90;;;;;;5052492;28;20491;-76
2022/08/02 06:58:02;;;;;;;9.68;2.70;;;17.40;99.90;;;;;;5072964;28;20098;-75
2022/08/02 07:00:29;;;;;;;12.50;2.70;;;17.50;99.90;;;;;;5054679;28;20041;-74
2022/08/02 07:02:55;;;;;;;12.90;2.78;;;17.60;99.90;;;;;;5052509;28;20399;-76
2022/08/02 07:05:21;;;;;;;7.07;2.47;;;17.70;99.90;;;;;;5050784;28;20090;-74
2022/08/02 07:07:47;;;;;;;10.77;2.70;;;17.90;99.90;;;;;;5053627;28;20033;-74
2022/08/02 07:10:13;;;;;;;9.82;2.58;;;18.00;99.90;;;;;;5035609;28;20110;-76
2022/08/02 07:12:39;;;;;;;11.20;2.50;;;18.10;99.90;;;;;;5050887;28;20048;-75
2022/08/02 07:15:06;;;;;;;11.25;2.50;;;18.10;99.90;;;;;;5039739;28;20059;-76
2022/08/02 07:17:33;;;;;;;10.13;2.35;;;18.20;99.90;;;;;;5055967;28;20045;-74
2022/08/02 07:19:59;;;;;;;9.77;2.55;;;18.30;99.90;;;;;;5033932;28;20071;-73
2022/08/02 07:22:26;;;;;;;9.25;2.45;;;18.20;99.90;;;;;;5052087;28;20048;-76
2022/08/02 07:24:53;;;;;;;8.35;2.42;;;18.30;99.90;;;;;;5052832;28;20041;-76
2022/08/02 07:27:19;;;;;;;8.52;2.33;;;18.30;99.90;;;;;;5052201;28;20086;-75
2022/08/02 07:29:45;;;;;;;9.95;1.85;;;18.30;99.90;;;;;;5050530;28;20045;-75
2022/08/02 07:32:11;;;;;;;9.30;2.15;;;18.40;99.90;;;;;;5042527;28;20064;-76
2022/08/02 07:34:36;;;;;;;11.00;2.38;;;18.50;99.90;;;;;;5038251;28;20048;-75
2022/08/02 07:37:02;;;;;;;7.63;2.00;;;18.60;99.90;;;;;;5051511;28;20132;-76
2022/08/02 07:39:28;;;;;;;10.50;2.50;;;18.60;99.90;;;;;;5033980;28;20049;-77
2022/08/02 07:41:54;;;;;;;8.88;1.63;;;18.70;99.90;;;;;;5052577;28;20437;-75
2022/08/02 07:44:20;;;;;;;7.65;2.20;;;18.70;99.90;;;;;;5052005;28;20032;-77
2022/08/02 07:46:46;;;;;;;4.97;1.63;;;18.80;99.90;;;;;;5035077;28;20037;-75
2022/08/02 07:49:17;;;;;;;10.93;1.92;;;18.90;99.90;;;;;;5035854;28;20124;-75
2022/08/02 07:51:46;;;;;;;7.75;2.15;;;19.10;99.90;;;;;;5052815;28;20053;-75
2022/08/02 07:54:12;;;;;;;8.98;1.70;;;19.10;99.90;;;;;;5054350;28;20041;-73
2022/08/02 07:56:37;;;;;;;7.57;1.73;;;19.30;99.90;;;;;;5034239;28;20083;-73
2022/08/02 07:59:03;;;;;;;5.05;1.42;;;19.40;99.90;;;;;;5038901;28;20037;-75
2022/08/02 08:01:29;;;;;;;6.45;1.80;;;19.50;99.90;;;;;;5054570;28;20060;-77
2022/08/02 08:03:55;;;;;;;9.45;1.85;;;19.70;99.90;;;;;;5087154;28;20052;-75
2022/08/02 08:06:21;;;;;;;5.22;1.50;;;19.80;99.90;;;;;;5077870;28;20040;-75
2022/08/02 08:08:46;;;;;;;7.53;1.50;;;19.90;99.90;;;;;;5058374;28;20124;-76
2022/08/02 08:11:12;;;;;;;8.30;1.63;;;19.90;99.90;;;;;;5072806;28;20047;-77
2022/08/02 08:13:38;;;;;;;7.78;1.70;;;20.00;99.90;;;;;;5072670;28;20557;-75
2022/08/02 08:16:05;;;;;;;3.83;1.35;;;20.20;99.90;;;;;;5071278;28;20067;-74
2022/08/02 08:18:30;;;;;;;4.93;1.40;;;20.30;99.90;;;;;;5058116;28;20071;-78
2022/08/02 08:20:56;;;;;;;6.07;1.60;;;20.40;99.90;;;;;;5074124;28;20093;-74
2022/08/02 08:23:23;;;;;;;4.25;1.52;;;20.40;99.90;;;;;;5070990;28;20443;-76
2022/08/02 08:25:49;;;;;;;8.35;1.35;;;20.60;99.90;;;;;;5057442;28;20044;-75
2022/08/02 08:28:15;;;;;;;3.33;1.30;;;20.70;99.90;;;;;;5056876;28;20032;-76
2022/08/02 08:30:41;;;;;;;3.88;1.20;;;20.80;99.90;;;;;;5055003;28;20044;-74
2022/08/02 08:33:07;;;;;;;4.68;1.33;;;20.90;99.90;;;;;;5073985;28;20071;-74
2022/08/02 08:35:33;;;;;;;5.55;1.20;;;20.90;99.90;;;;;;5073608;28;20083;-75
2022/08/02 08:37:59;;;;;;;4.63;1.05;;;21.00;99.90;;;;;;5057157;28;20054;-75
2022/08/02 08:40:25;;;;;;;7.28;1.58;;;21.00;99.90;;;;;;5057483;28;20040;-77
2022/08/02 08:42:52;;;;;;;7.50;1.15;;;21.10;99.90;;;;;;5073649;28;20032;-75
2022/08/02 08:45:17;;;;;;;4.15;1.02;;;21.30;99.90;;;;;;5072230;28;20066;-75
2022/08/02 08:47:46;;;;;;;3.85;1.33;;;21.30;99.90;;;;;;5073598;28;20155;-77
2022/08/02 08:50:24;;;;;;;3.78;0.85;;;21.40;99.90;;;;;;5074715;28;20040;-76
2022/08/02 08:53:08;;;;;;;4.35;0.95;;;21.50;99.90;;;;;;5056169;28;20547;-76
2022/08/02 08:55:35;;;;;;;3.38;1.15;;;21.60;99.90;;;;;;5071316;28;20058;-74
2022/08/02 08:58:02;;;;;;;4.40;1.20;;;21.70;99.90;;;;;;5074276;28;20109;-77
2022/08/02 09:00:30;;;;;;;3.72;1.08;;;21.80;99.90;;;;;;5056556;28;20043;-74
2022/08/02 09:02:57;;;;;;;3.05;1.20;;;21.90;99.90;;;;;;5066243;28;20044;-75
2022/08/02 09:05:24;;;;;;;4.03;1.30;;;22.00;99.90;;;;;;5070007;28;20127;-75
2022/08/02 09:07:51;;;;;;;3.00;1.10;;;22.10;99.90;;;;;;5074703;28;20052;-76
2022/08/02 09:10:39;;;;;;;3.28;1.30;;;22.30;99.90;;;;;;5072018;28;20123;-77
2022/08/02 09:13:16;;;;;;;5.65;1.10;;;22.40;99.90;;;;;;5057356;28;20040;-75
2022/08/02 09:15:44;;;;;;;3.30;0.93;;;22.60;99.90;;;;;;5074174;28;20192;-75
2022/08/02 09:18:10;;;;;;;3.97;1.20;;;22.70;99.90;;;;;;5061243;28;20109;-73
2022/08/02 09:20:56;;;;;;;4.75;1.30;;;22.80;99.90;;;;;;5076674;28;20135;-73
2022/08/02 09:23:22;;;;;;;5.75;1.20;;;23.00;99.90;;;;;;5056730;28;20924;-75
2022/08/02 09:26:00;;;;;;;4.68;1.10;;;23.10;99.90;;;;;;5071744;28;20548;-75
2022/08/02 09:28:31;;;;;;;7.60;1.35;;;23.30;99.90;;;;;;5073872;28;20055;-75
2022/08/02 09:31:13;;;;;;;3.88;1.13;;;23.40;99.90;;;;;;5056242;28;20446;-74
2022/08/02 09:33:40;;;;;;;4.07;1.20;;;23.60;99.90;;;;;;5059191;28;20463;-76
2022/08/02 09:36:08;;;;;;;4.75;1.55;;;23.80;99.90;;;;;;5057419;28;20127;-75
2022/08/02 09:38:35;;;;;;;2.63;1.35;;;23.90;99.90;;;;;;5073212;28;20044;-75
2022/08/02 09:41:03;;;;;;;4.40;1.20;;;24.10;99.90;;;;;;5070207;28;20033;-76
2022/08/02 09:43:40;;;;;;;4.53;1.20;;;24.20;99.90;;;;;;5072558;28;20452;-77
2022/08/02 09:46:10;;;;;;;4.18;1.40;;;24.40;99.90;;;;;;5055043;28;20032;-77
2022/08/02 09:48:54;;;;;;;5.28;1.27;;;24.50;99.90;;;;;;5073614;28;20046;-77
2022/08/02 09:51:30;;;;;;;4.35;1.33;;;24.70;99.60;;;;;;5056619;28;20592;-73
2022/08/02 09:53:58;;;;;;;4.55;1.20;;;24.80;99.80;;;;;;5072721;28;20386;-75
2022/08/02 09:56:25;;;;;;;7.13;1.52;;;24.90;99.70;;;;;;5070870;28;20080;-77
2022/08/02 09:58:53;;;;;;;2.83;1.30;;;24.90;99.50;;;;;;5073738;28;20409;-74
2022/08/02 10:01:33;;;;;;;3.83;1.38;;;24.90;99.40;;;;;;5053996;28;20048;-76
2022/08/02 10:04:02;;;;;;;4.18;1.33;;;24.90;99.50;;;;;;5070980;28;20079;-78
2022/08/02 10:06:29;;;;;;;4.60;1.50;;;25.00;99.70;;;;;;5050485;28;20162;-77
2022/08/02 10:08:56;;;;;;;7.30;1.67;;;25.20;99.70;;;;;;5063118;28;20058;-78
2022/08/02 10:11:23;;;;;;;3.97;1.55;;;25.50;99.90;;;;;;5055938;28;20483;-75
2022/08/02 10:13:50;;;;;;;7.40;1.77;;;25.60;99.90;;;;;;5055575;28;20418;-76
2022/08/02 10:16:21;;;;;;;3.00;1.27;;;25.70;99.90;;;;;;5055538;28;20039;-78
2022/08/02 10:18:49;;;;;;;2.90;1.33;;;25.60;99.90;;;;;;5072407;28;20092;-77
2022/08/02 10:21:23;;;;;;;6.13;1.80;;;25.70;99.90;;;;;;5054521;28;20040;-76
2022/08/02 10:23:51;;;;;;;3.15;1.52;;;25.80;99.90;;;;;;5054271;28;20532;-76
2022/08/02 10:26:19;;;;;;;6.57;1.42;;;26.00;99.90;;;;;;5053755;28;20093;-76
2022/08/02 10:28:48;;;;;;;5.47;1.70;;;26.30;99.90;;;;;;5054813;28;20049;-76
2022/08/02 10:31:18;;;;;;;3.55;1.67;;;26.60;99.50;;;;;;5052878;28;20043;-76
2022/08/02 10:33:46;;;;;;;3.83;1.58;;;26.50;99.80;;;;;;5036503;28;20436;-77
2022/08/02 10:36:13;;;;;;;4.40;2.00;;;26.60;99.90;;;;;;5069652;28;20078;-75
2022/08/02 10:38:44;;;;;;;4.45;2.10;;;26.60;99.90;;;;;;5091347;28;20062;-77
2022/08/02 10:41:11;;;;;;;8.20;1.88;;;26.70;99.90;;;;;;5059207;28;20097;-73
2022/08/02 10:43:42;;;;;;;4.90;1.98;;;26.80;99.90;;;;;;5077739;28;20032;-73
2022/08/02 10:46:33;;;;;;;5.10;2.10;;;26.80;99.90;;;;;;5055013;28;20051;-75
2022/08/02 10:49:12;;;;;;;9.85;2.20;;;26.90;99.90;;;;;;5055411;28;20044;-76
2022/08/02 10:51:57;;;;;;;6.15;2.22;;;27.00;99.90;;;;;;5073643;28;20134;-77
2022/08/02 10:54:34;;;;;;;7.00;2.20;;;27.00;99.70;;;;;;5066144;28;20039;-74
2022/08/02 10:57:00;;;;;;;6.05;2.00;;;27.00;99.80;;;;;;5071065;28;20043;-77
2022/08/02 10:59:29;;;;;;;6.28;2.30;;;27.40;99.90;;;;;;5071786;28;20046;-76
2022/08/02 11:02:01;;;;;;;7.20;2.30;;;27.80;99.60;;;;;;5072463;28;20051;-76
2022/08/02 11:04:29;;;;;;;5.05;1.85;;;27.90;99.60;;;;;;5070781;28;20123;-75
2022/08/02 11:07:16;;;;;;;4.82;1.80;;;27.90;99.90;;;;;;5054468;28;20412;-78
2022/08/02 11:09:49;;;;;;;6.93;1.70;;;27.70;99.00;;;;;;5070121;28;20032;-78
2022/08/02 11:12:17;;;;;;;5.45;1.83;;;27.50;98.20;;;;;;5066061;28;20066;-75
2022/08/02 11:14:58;;;;;;;5.97;2.00;;;27.50;99.00;;;;;;5071383;28;20044;-75
2022/08/02 11:17:24;;;;;;;6.03;1.85;;;27.50;99.50;;;;;;5076672;28;20437;-75
2022/08/02 11:20:09;;;;;;;6.13;2.20;;;27.30;99.10;;;;;;5073572;28;20070;-76
2022/08/02 11:22:34;;;;;;;;;;;27.20;99.20;;;;;;5076676;28;20136;-78
2022/08/02 11:25:19;;;;;;;3.88;1.92;;;27.10;99.00;;;;;;5074793;28;20011;-76
2022/08/02 11:27:44;;;;;;;5.43;2.00;;;27.00;99.40;;;;;;5059493;28;20040;-78
2022/08/02 11:30:11;;;;;;;6.88;2.10;;;26.90;99.90;;;;;;5052157;28;20135;-75
2022/08/02 11:32:37;;;;;;;4.78;2.00;;;27.00;99.70;;;;;;5069766;28;20047;-78
2022/08/02 11:35:04;;;;;;;6.00;2.33;;;27.10;99.80;;;;;;5057158;28;20093;-76
2022/08/02 11:37:34;;;;;;;5.63;2.00;;;27.20;99.90;;;;;;5074871;28;20047;-78
2022/08/02 11:40:04;;;;;;;7.00;2.40;;;27.50;99.90;;;;;;5074340;28;20043;-75
2022/08/02 11:42:34;;;;;;;7.38;2.40;;;27.70;99.80;;;;;;5075430;28;20403;-75
2022/08/02 11:45:01;;;;;;;3.80;1.70;;;27.70;99.30;;;;;;5074179;28;20547;-77
2022/08/02 11:47:27;;;;;;;6.97;1.90;;;27.70;99.60;;;;;;5074458;28;20088;-79
2022/08/02 11:50:06;;;;;;;4.38;1.88;;;27.60;99.60;;;;;;5087067;28;20119;-77
2022/08/02 11:52:33;;;;;;;5.95;2.00;;;27.60;99.60;;;;;;5075404;28;20052;-75
2022/08/02 11:54:59;;;;;;;5.00;2.47;;;27.60;99.90;;;;;;5058316;28;20060;-78
2022/08/02 11:57:24;;;;;;;3.80;2.42;;;27.70;99.30;;;;;;5074665;28;20068;-74
2022/08/02 11:59:52;;;;;;;5.40;2.03;;;27.90;99.70;;;;;;5074275;28;20047;-79
2022/08/02 12:02:20;;;;;;;4.43;2.45;;;28.20;99.50;;;;;;5059159;28;20039;-76
2022/08/02 12:04:58;;;;;;;4.18;2.45;;;28.10;99.40;;;;;;5080175;28;20051;-74
2022/08/02 12:07:29;;;;;;;9.50;2.85;;;28.10;99.40;;;;;;5077108;28;20044;-75
2022/08/02 12:10:05;;;;;;;6.80;2.50;;;28.10;99.80;;;;;;5074497;28;20040;-76
2022/08/02 12:12:31;;;;;;;10.85;2.90;;;28.00;99.80;;;;;;5075242;28;20335;-76
2022/08/02 12:14:57;;;;;;;6.57;2.40;;;27.90;99.50;;;;;;5073720;28;20044;-78
2022/08/02 12:20:09;;;;;;;5.38;3.15;;;27.40;99.90;;;;;;5074906;28;20226;-77
2022/08/02 12:22:36;;;;;;;6.15;3.47;;;27.10;99.90;;;;;;5074874;28;20036;-78
2022/08/02 12:25:19;;;;;;;8.32;3.90;;;27.00;99.90;;;;;;5071929;28;20072;-77
2022/08/02 12:27:45;;;;;;;7.82;3.55;;;26.80;99.90;;;;;;5074883;28;20035;-78
2022/08/02 12:30:13;;;;;;;7.47;4.13;;;26.70;99.90;;;;;;5069616;28;20047;-77
2022/08/02 12:32:40;;;;;;;9.10;4.15;;;26.70;99.90;;;;;;5074913;28;20134;-76
2022/08/02 12:35:06;;;;;;;8.27;3.72;;;26.70;99.90;;;;;;5056041;28;20052;-76
2022/08/02 12:37:32;;;;;;;8.43;3.45;;;26.60;99.90;;;;;;5073377;28;20131;-75
2022/08/02 12:40:16;;;;;;;5.70;3.38;;;26.50;99.90;;;;;;5055683;28;20059;-76
2022/08/02 12:42:56;;;;;;;6.10;2.90;;;26.60;99.90;;;;;;5068068;28;20036;-78
2022/08/02 12:45:22;;;;;;;8.85;3.30;;;26.50;99.90;;;;;;5071592;28;20047;-75
2022/08/02 12:47:51;;;;;;;4.93;2.67;;;26.30;99.90;;;;;;5060587;28;20114;-78
2022/08/02 12:50:20;;;;;;;9.07;2.53;;;26.20;99.90;;;;;;5056433;28;20082;-78
2022/08/02 12:52:49;;;;;;;5.47;2.60;;;26.10;99.90;;;;;;5056595;28;20096;-78
2022/08/02 12:55:15;;;;;;;4.18;2.60;;;26.20;99.90;;;;;;5061558;28;20032;-76